CYPR/YPR METAR and TAF weather

Enter ICAO airport designator
Station Type Date Time Source
CYPR METAR 2019/06/26 18:03 UTC NOAA

CYPR 261803Z AUTO 24005KT 210V320 2 1/4SM BR OVC004 14/13 A2992 RMK SLP135


Station Type Date Time Source
CYPR Decoded METAR 2019/06/26 18:03 UTC NOAA

Prince Rupert, B. C., Canada (CYPR) 54-18N 130-26W 34M
Jun 26, 2019 - 02:03 PM EDT / 2019.06.26 1803 UTC
Wind: from the WSW (240 degrees) at 6 MPH (5 KT) (direction variable):0
Visibility: 2 1/4 mile(s):0
Sky conditions: overcast
Weather: mist
Temperature: 57 F (14 C)
Dew Point: 55 F (13 C)
Relative Humidity: 93%
Pressure (altimeter): 29.92 in. Hg (1013 hPa)
ob: CYPR 261803Z AUTO 24005KT 210V320 2 1/4SM BR OVC004 14/13 A2992 RMK SLP135
cycle: 18

Station Type Date Time Source
CYPR TAF 2019/06/26 13:39 UTC NOAA

TAF CYPR 261238Z 2613/2701 VRB03KT P6SM BKN004
TEMPO 2613/2618 3SM BR BKN004 PROB30 2613/2618 1/2SM FG VV002
FM261800 27005KT P6SM SKC
RMK FCST BASED ON AUTO OBS. NXT FCST BY 261900Z

Example: see airport list